sensor_id;sensor_type;location;lat;lon;timestamp;temperature;humidity
24049;DHT22;12250;50.956;4.746;2022-10-16T00:01:32;13.40;99.90
24049;DHT22;12250;50.956;4.746;2022-10-16T00:03:59;13.40;99.90
24049;DHT22;12250;50.956;4.746;2022-10-16T00:06:27;13.30;99.90
24049;DHT22;12250;50.956;4.746;2022-10-16T00:08:53;13.30;99.90
24049;DHT22;12250;50.956;4.746;2022-10-16T00:11:24;13.30;99.90
24049;DHT22;12250;50.956;4.746;2022-10-16T00:13:54;13.30;99.90
24049;DHT22;12250;50.956;4.746;2022-10-16T00:16:20;13.20;99.90
24049;DHT22;12250;50.956;4.746;2022-10-16T00:18:46;13.20;99.90
24049;DHT22;12250;50.956;4.746;2022-10-16T00:21:22;13.20;99.90
24049;DHT22;12250;50.956;4.746;2022-10-16T00:23:53;13.10;99.90
24049;DHT22;12250;50.956;4.746;2022-10-16T00:26:19;13.10;99.90
24049;DHT22;12250;50.956;4.746;2022-10-16T00:28:47;13.10;99.90
24049;DHT22;12250;50.956;4.746;2022-10-16T00:31:14;13.10;99.90
24049;DHT22;12250;50.956;4.746;2022-10-16T00:33:40;13.10;99.90
24049;DHT22;12250;50.956;4.746;2022-10-16T00:36:07;13.00;99.90
24049;DHT22;12250;50.956;4.746;2022-10-16T00:38:34;13.10;99.90
24049;DHT22;12250;50.956;4.746;2022-10-16T00:41:00;13.10;99.90
24049;DHT22;12250;50.956;4.746;2022-10-16T00:43:39;13.00;99.90
24049;DHT22;12250;50.956;4.746;2022-10-16T00:49:09;12.90;99.90
24049;DHT22;12250;50.956;4.746;2022-10-16T00:51:40;12.90;99.90
24049;DHT22;12250;50.956;4.746;2022-10-16T00:54:10;12.80;99.90
24049;DHT22;12250;50.956;4.746;2022-10-16T00:56:37;12.80;99.90
24049;DHT22;12250;50.956;4.746;2022-10-16T00:59:10;12.70;99.90
24049;DHT22;12250;50.956;4.746;2022-10-16T01:01:39;12.70;99.90
24049;DHT22;12250;50.956;4.746;2022-10-16T01:04:04;12.70;99.90
24049;DHT22;12250;50.956;4.746;2022-10-16T01:06:56;12.60;99.90
24049;DHT22;12250;50.956;4.746;2022-10-16T01:12:30;12.60;99.90
24049;DHT22;12250;50.956;4.746;2022-10-16T01:15:13;12.60;99.90
24049;DHT22;12250;50.956;4.746;2022-10-16T01:17:45;12.50;99.90
24049;DHT22;12250;50.956;4.746;2022-10-16T01:25:36;12.50;99.90
24049;DHT22;12250;50.956;4.746;2022-10-16T01:28:06;12.50;99.90
24049;DHT22;12250;50.956;4.746;2022-10-16T01:30:35;12.40;99.90
24049;DHT22;12250;50.956;4.746;2022-10-16T01:33:19;12.40;99.90
24049;DHT22;12250;50.956;4.746;2022-10-16T01:35:51;12.30;99.90
24049;DHT22;12250;50.956;4.746;2022-10-16T01:38:34;12.40;99.90
24049;DHT22;12250;50.956;4.746;2022-10-16T01:41:14;12.50;99.90
24049;DHT22;12250;50.956;4.746;2022-10-16T01:43:48;12.50;99.90
24049;DHT22;12250;50.956;4.746;2022-10-16T01:46:18;12.50;99.90
24049;DHT22;12250;50.956;4.746;2022-10-16T01:48:45;12.50;99.90
24049;DHT22;12250;50.956;4.746;2022-10-16T01:51:12;12.60;99.90
24049;DHT22;12250;50.956;4.746;2022-10-16T01:53:44;12.60;99.90
24049;DHT22;12250;50.956;4.746;2022-10-16T01:56:12;12.60;99.90
24049;DHT22;12250;50.956;4.746;2022-10-16T01:58:44;12.60;99.90
24049;DHT22;12250;50.956;4.746;2022-10-16T02:01:11;12.60;99.90
24049;DHT22;12250;50.956;4.746;2022-10-16T02:03:39;12.60;99.90
24049;DHT22;12250;50.956;4.746;2022-10-16T02:06:06;12.60;99.90
24049;DHT22;12250;50.956;4.746;2022-10-16T02:08:33;12.60;99.90
24049;DHT22;12250;50.956;4.746;2022-10-16T02:11:00;12.70;99.90
24049;DHT22;12250;50.956;4.746;2022-10-16T02:13:34;12.70;99.90
24049;DHT22;12250;50.956;4.746;2022-10-16T02:16:01;12.70;99.90
24049;DHT22;12250;50.956;4.746;2022-10-16T02:18:27;12.70;99.90
24049;DHT22;12250;50.956;4.746;2022-10-16T02:21:11;12.70;99.90
24049;DHT22;12250;50.956;4.746;2022-10-16T02:23:42;12.70;99.90
24049;DHT22;12250;50.956;4.746;2022-10-16T02:26:15;12.70;99.90
24049;DHT22;12250;50.956;4.746;2022-10-16T02:28:49;12.80;99.90
24049;DHT22;12250;50.956;4.746;2022-10-16T02:31:20;12.70;99.90
24049;DHT22;12250;50.956;4.746;2022-10-16T02:33:48;12.70;99.90
24049;DHT22;12250;50.956;4.746;2022-10-16T02:36:15;12.70;99.90
24049;DHT22;12250;50.956;4.746;2022-10-16T02:38:41;12.70;99.90
24049;DHT22;12250;50.956;4.746;2022-10-16T02:41:07;12.70;99.90
24049;DHT22;12250;50.956;4.746;2022-10-16T02:43:33;12.70;99.90
24049;DHT22;12250;50.956;4.746;2022-10-16T02:45:59;12.70;99.90
24049;DHT22;12250;50.956;4.746;2022-10-16T02:48:25;12.70;99.90
24049;DHT22;12250;50.956;4.746;2022-10-16T02:50:50;12.70;99.90
24049;DHT22;12250;50.956;4.746;2022-10-16T02:53:16;12.70;99.90
24049;DHT22;12250;50.956;4.746;2022-10-16T02:55:42;12.70;99.90
24049;DHT22;12250;50.956;4.746;2022-10-16T02:58:08;12.70;99.90
24049;DHT22;12250;50.956;4.746;2022-10-16T03:00:33;12.70;99.90
24049;DHT22;12250;50.956;4.746;2022-10-16T03:02:59;12.70;99.90
24049;DHT22;12250;50.956;4.746;2022-10-16T03:05:24;12.70;99.90
24049;DHT22;12250;50.956;4.746;2022-10-16T03:07:50;12.70;99.90
24049;DHT22;12250;50.956;4.746;2022-10-16T03:10:18;12.70;99.90
24049;DHT22;12250;50.956;4.746;2022-10-16T03:12:43;12.80;99.90
24049;DHT22;12250;50.956;4.746;2022-10-16T03:15:09;12.90;99.90
24049;DHT22;12250;50.956;4.746;2022-10-16T03:17:35;12.90;99.90
24049;DHT22;12250;50.956;4.746;2022-10-16T03:20:01;12.90;99.90
24049;DHT22;12250;50.956;4.746;2022-10-16T03:22:27;13.00;99.90
24049;DHT22;12250;50.956;4.746;2022-10-16T03:24:52;13.00;99.90
24049;DHT22;12250;50.956;4.746;2022-10-16T03:27:18;13.00;99.90
24049;DHT22;12250;50.956;4.746;2022-10-16T03:29:43;13.00;99.90
24049;DHT22;12250;50.956;4.746;2022-10-16T03:32:09;13.00;99.90
24049;DHT22;12250;50.956;4.746;2022-10-16T03:34:34;13.10;99.90
24049;DHT22;12250;50.956;4.746;2022-10-16T03:37:00;13.10;99.90
24049;DHT22;12250;50.956;4.746;2022-10-16T03:39:26;13.20;99.90
24049;DHT22;12250;50.956;4.746;2022-10-16T03:41:52;13.20;99.90
24049;DHT22;12250;50.956;4.746;2022-10-16T03:44:17;13.20;99.90
24049;DHT22;12250;50.956;4.746;2022-10-16T03:46:43;13.20;99.90
24049;DHT22;12250;50.956;4.746;2022-10-16T03:49:09;13.20;99.90
24049;DHT22;12250;50.956;4.746;2022-10-16T03:51:34;13.20;99.90
24049;DHT22;12250;50.956;4.746;2022-10-16T03:54:00;13.20;99.90
24049;DHT22;12250;50.956;4.746;2022-10-16T03:56:25;13.20;99.90
24049;DHT22;12250;50.956;4.746;2022-10-16T03:58:51;13.30;99.90
24049;DHT22;12250;50.956;4.746;2022-10-16T04:01:17;13.30;99.90
24049;DHT22;12250;50.956;4.746;2022-10-16T04:03:42;13.20;99.90
24049;DHT22;12250;50.956;4.746;2022-10-16T04:06:08;13.10;99.90
24049;DHT22;12250;50.956;4.746;2022-10-16T04:08:34;13.20;99.90
24049;DHT22;12250;50.956;4.746;2022-10-16T04:11:02;13.10;99.90
24049;DHT22;12250;50.956;4.746;2022-10-16T04:13:28;13.10;99.90
24049;DHT22;12250;50.956;4.746;2022-10-16T04:15:54;13.10;99.90
24049;DHT22;12250;50.956;4.746;2022-10-16T04:18:19;13.10;99.90
24049;DHT22;12250;50.956;4.746;2022-10-16T04:20:45;13.10;99.90
24049;DHT22;12250;50.956;4.746;2022-10-16T04:23:11;13.10;99.90
24049;DHT22;12250;50.956;4.746;2022-10-16T04:25:36;13.10;99.90
24049;DHT22;12250;50.956;4.746;2022-10-16T04:28:03;13.20;99.90
24049;DHT22;12250;50.956;4.746;2022-10-16T04:30:28;13.20;99.90
24049;DHT22;12250;50.956;4.746;2022-10-16T04:32:54;13.20;99.90
24049;DHT22;12250;50.956;4.746;2022-10-16T04:35:21;13.10;99.90
24049;DHT22;12250;50.956;4.746;2022-10-16T04:37:47;13.10;99.90
24049;DHT22;12250;50.956;4.746;2022-10-16T04:40:13;13.10;99.90
24049;DHT22;12250;50.956;4.746;2022-10-16T04:42:39;13.10;99.90
24049;DHT22;12250;50.956;4.746;2022-10-16T04:45:05;13.10;99.90
24049;DHT22;12250;50.956;4.746;2022-10-16T04:47:31;13.10;99.90
24049;DHT22;12250;50.956;4.746;2022-10-16T04:49:57;13.10;99.90
24049;DHT22;12250;50.956;4.746;2022-10-16T04:52:23;13.00;99.90
24049;DHT22;12250;50.956;4.746;2022-10-16T04:54:50;13.00;99.90
24049;DHT22;12250;50.956;4.746;2022-10-16T04:57:16;12.90;99.90
24049;DHT22;12250;50.956;4.746;2022-10-16T04:59:42;12.90;99.90
24049;DHT22;12250;50.956;4.746;2022-10-16T05:02:08;12.90;99.90
24049;DHT22;12250;50.956;4.746;2022-10-16T05:04:33;12.90;99.90
24049;DHT22;12250;50.956;4.746;2022-10-16T05:06:59;12.90;99.90
24049;DHT22;12250;50.956;4.746;2022-10-16T05:09:25;12.80;99.90
24049;DHT22;12250;50.956;4.746;2022-10-16T05:11:50;12.80;99.90
24049;DHT22;12250;50.956;4.746;2022-10-16T05:14:16;12.80;99.90
24049;DHT22;12250;50.956;4.746;2022-10-16T05:16:41;12.80;99.90
24049;DHT22;12250;50.956;4.746;2022-10-16T05:19:07;12.70;99.90
24049;DHT22;12250;50.956;4.746;2022-10-16T05:21:33;12.70;99.90
24049;DHT22;12250;50.956;4.746;2022-10-16T05:23:58;12.60;99.90
24049;DHT22;12250;50.956;4.746;2022-10-16T05:26:24;12.50;99.90
24049;DHT22;12250;50.956;4.746;2022-10-16T05:28:50;12.50;99.90
24049;DHT22;12250;50.956;4.746;2022-10-16T05:31:15;12.50;99.90
24049;DHT22;12250;50.956;4.746;2022-10-16T05:33:41;12.50;99.90
24049;DHT22;12250;50.956;4.746;2022-10-16T05:36:08;12.40;99.90
24049;DHT22;12250;50.956;4.746;2022-10-16T05:38:37;12.40;99.90
24049;DHT22;12250;50.956;4.746;2022-10-16T05:41:04;12.40;99.90
24049;DHT22;12250;50.956;4.746;2022-10-16T05:43:31;12.40;99.90
24049;DHT22;12250;50.956;4.746;2022-10-16T05:45:59;12.40;99.90
24049;DHT22;12250;50.956;4.746;2022-10-16T05:48:25;12.30;99.90
24049;DHT22;12250;50.956;4.746;2022-10-16T05:51:02;12.30;99.90
24049;DHT22;12250;50.956;4.746;2022-10-16T05:53:29;12.30;99.90
24049;DHT22;12250;50.956;4.746;2022-10-16T05:55:56;12.20;99.90
24049;DHT22;12250;50.956;4.746;2022-10-16T05:58:22;12.30;99.90
24049;DHT22;12250;50.956;4.746;2022-10-16T06:01:01;12.30;99.90
24049;DHT22;12250;50.956;4.746;2022-10-16T06:03:28;12.40;99.90
24049;DHT22;12250;50.956;4.746;2022-10-16T06:05:53;12.40;99.90
24049;DHT22;12250;50.956;4.746;2022-10-16T06:08:21;12.40;99.90
24049;DHT22;12250;50.956;4.746;2022-10-16T06:10:47;12.40;99.90
24049;DHT22;12250;50.956;4.746;2022-10-16T06:13:14;12.30;99.90
24049;DHT22;12250;50.956;4.746;2022-10-16T06:15:40;12.30;99.90
24049;DHT22;12250;50.956;4.746;2022-10-16T06:18:09;12.40;99.90
24049;DHT22;12250;50.956;4.746;2022-10-16T06:20:36;12.40;99.90
24049;DHT22;12250;50.956;4.746;2022-10-16T06:23:02;12.30;99.90
24049;DHT22;12250;50.956;4.746;2022-10-16T06:25:30;12.40;99.90
24049;DHT22;12250;50.956;4.746;2022-10-16T06:27:55;12.50;99.90
24049;DHT22;12250;50.956;4.746;2022-10-16T06:30:21;12.40;99.90
24049;DHT22;12250;50.956;4.746;2022-10-16T06:32:46;12.40;99.90
24049;DHT22;12250;50.956;4.746;2022-10-16T06:35:12;12.40;99.90
24049;DHT22;12250;50.956;4.746;2022-10-16T06:37:37;12.40;99.90
24049;DHT22;12250;50.956;4.746;2022-10-16T06:40:03;12.40;99.90
24049;DHT22;12250;50.956;4.746;2022-10-16T06:42:30;12.40;99.90
24049;DHT22;12250;50.956;4.746;2022-10-16T06:44:55;12.40;99.90
24049;DHT22;12250;50.956;4.746;2022-10-16T06:47:21;12.40;99.90
24049;DHT22;12250;50.956;4.746;2022-10-16T06:49:46;12.50;99.90
24049;DHT22;12250;50.956;4.746;2022-10-16T06:52:12;12.50;99.90
24049;DHT22;12250;50.956;4.746;2022-10-16T06:54:37;12.60;99.90
24049;DHT22;12250;50.956;4.746;2022-10-16T06:57:03;12.60;99.90
24049;DHT22;12250;50.956;4.746;2022-10-16T06:59:28;12.70;99.90
24049;DHT22;12250;50.956;4.746;2022-10-16T07:01:54;12.80;99.90
24049;DHT22;12250;50.956;4.746;2022-10-16T07:04:20;12.90;99.90
24049;DHT22;12250;50.956;4.746;2022-10-16T07:06:45;13.10;99.90
24049;DHT22;12250;50.956;4.746;2022-10-16T07:09:11;13.20;99.90
24049;DHT22;12250;50.956;4.746;2022-10-16T07:11:38;13.40;99.90
24049;DHT22;12250;50.956;4.746;2022-10-16T07:14:05;13.40;99.90
24049;DHT22;12250;50.956;4.746;2022-10-16T07:16:34;13.50;99.90
24049;DHT22;12250;50.956;4.746;2022-10-16T07:19:01;13.70;99.90
24049;DHT22;12250;50.956;4.746;2022-10-16T07:21:29;13.70;99.90
24049;DHT22;12250;50.956;4.746;2022-10-16T07:23:59;13.80;99.90
24049;DHT22;12250;50.956;4.746;2022-10-16T07:26:27;13.90;99.90
24049;DHT22;12250;50.956;4.746;2022-10-16T07:28:53;14.00;99.90
24049;DHT22;12250;50.956;4.746;2022-10-16T07:31:20;14.20;99.90
24049;DHT22;12250;50.956;4.746;2022-10-16T07:33:47;14.20;99.90
24049;DHT22;12250;50.956;4.746;2022-10-16T07:36:17;14.30;99.90
24049;DHT22;12250;50.956;4.746;2022-10-16T07:38:44;15.30;99.90
24049;DHT22;12250;50.956;4.746;2022-10-16T07:41:14;17.40;99.90
24049;DHT22;12250;50.956;4.746;2022-10-16T07:43:44;20.00;99.90
24049;DHT22;12250;50.956;4.746;2022-10-16T07:46:10;22.50;99.90
24049;DHT22;12250;50.956;4.746;2022-10-16T07:48:36;23.20;99.90
24049;DHT22;12250;50.956;4.746;2022-10-16T07:51:03;23.20;99.90
24049;DHT22;12250;50.956;4.746;2022-10-16T07:53:29;24.30;99.90
24049;DHT22;12250;50.956;4.746;2022-10-16T07:56:03;25.80;99.90
24049;DHT22;12250;50.956;4.746;2022-10-16T07:58:30;25.80;99.90
24049;DHT22;12250;50.956;4.746;2022-10-16T08:00:56;25.30;99.90
24049;DHT22;12250;50.956;4.746;2022-10-16T08:03:22;25.00;99.90
24049;DHT22;12250;50.956;4.746;2022-10-16T08:05:48;24.80;99.50
24049;DHT22;12250;50.956;4.746;2022-10-16T08:08:15;25.80;98.70
24049;DHT22;12250;50.956;4.746;2022-10-16T08:10:40;26.40;97.30
24049;DHT22;12250;50.956;4.746;2022-10-16T08:13:06;25.30;96.00
24049;DHT22;12250;50.956;4.746;2022-10-16T08:15:32;24.00;97.00
24049;DHT22;12250;50.956;4.746;2022-10-16T08:18:03;23.30;98.80
24049;DHT22;12250;50.956;4.746;2022-10-16T08:20:30;22.80;99.70
24049;DHT22;12250;50.956;4.746;2022-10-16T08:22:56;21.80;99.90
24049;DHT22;12250;50.956;4.746;2022-10-16T08:25:23;20.90;99.90
24049;DHT22;12250;50.956;4.746;2022-10-16T08:27:49;20.90;99.90
24049;DHT22;12250;50.956;4.746;2022-10-16T08:30:17;21.20;99.90
24049;DHT22;12250;50.956;4.746;2022-10-16T08:32:43;21.40;99.90
24049;DHT22;12250;50.956;4.746;2022-10-16T08:35:10;22.60;99.90
24049;DHT22;12250;50.956;4.746;2022-10-16T08:37:36;23.40;98.90
24049;DHT22;12250;50.956;4.746;2022-10-16T08:40:04;25.00;96.90
24049;DHT22;12250;50.956;4.746;2022-10-16T08:50:50;22.40;99.90
24049;DHT22;12250;50.956;4.746;2022-10-16T08:53:42;24.10;97.80
24049;DHT22;12250;50.956;4.746;2022-10-16T08:56:08;24.00;96.10
24049;DHT22;12250;50.956;4.746;2022-10-16T08:58:34;23.10;97.30
24049;DHT22;12250;50.956;4.746;2022-10-16T09:01:04;22.40;98.80
24049;DHT22;12250;50.956;4.746;2022-10-16T09:17:00;19.60;99.90
24049;DHT22;12250;50.956;4.746;2022-10-16T09:19:41;19.60;99.90
24049;DHT22;12250;50.956;4.746;2022-10-16T09:22:17;19.40;99.90
24049;DHT22;12250;50.956;4.746;2022-10-16T09:24:43;19.10;99.90
24049;DHT22;12250;50.956;4.746;2022-10-16T09:27:13;18.80;99.90
24049;DHT22;12250;50.956;4.746;2022-10-16T09:29:40;18.80;99.90
24049;DHT22;12250;50.956;4.746;2022-10-16T09:32:18;18.60;99.90
24049;DHT22;12250;50.956;4.746;2022-10-16T09:34:48;18.50;99.90
24049;DHT22;12250;50.956;4.746;2022-10-16T09:37:18;18.40;99.90
24049;DHT22;12250;50.956;4.746;2022-10-16T09:39:46;18.50;99.90
24049;DHT22;12250;50.956;4.746;2022-10-16T09:42:28;18.70;99.90
24049;DHT22;12250;50.956;4.746;2022-10-16T09:44:56;18.70;99.90
24049;DHT22;12250;50.956;4.746;2022-10-16T09:47:27;18.70;99.90
24049;DHT22;12250;50.956;4.746;2022-10-16T09:50:02;18.90;99.90
24049;DHT22;12250;50.956;4.746;2022-10-16T09:52:30;19.80;99.90
24049;DHT22;12250;50.956;4.746;2022-10-16T09:55:14;21.40;99.90
24049;DHT22;12250;50.956;4.746;2022-10-16T09:57:53;21.70;99.90
24049;DHT22;12250;50.956;4.746;2022-10-16T10:00:20;21.40;99.90
24049;DHT22;12250;50.956;4.746;2022-10-16T10:02:46;21.30;99.90
24049;DHT22;12250;50.956;4.746;2022-10-16T10:05:22;20.70;99.90
24049;DHT22;12250;50.956;4.746;2022-10-16T10:07:57;21.20;99.90
24049;DHT22;12250;50.956;4.746;2022-10-16T10:10:28;23.90;99.00
24049;DHT22;12250;50.956;4.746;2022-10-16T10:12:54;26.60;91.20
24049;DHT22;12250;50.956;4.746;2022-10-16T10:15:21;28.20;85.30
24049;DHT22;12250;50.956;4.746;2022-10-16T10:17:57;29.70;77.00
24049;DHT22;12250;50.956;4.746;2022-10-16T10:20:31;30.50;72.80
24049;DHT22;12250;50.956;4.746;2022-10-16T10:23:13;30.80;69.00
24049;DHT22;12250;50.956;4.746;2022-10-16T10:31:08;28.90;71.00
24049;DHT22;12250;50.956;4.746;2022-10-16T10:42:28;26.90;75.30
24049;DHT22;12250;50.956;4.746;2022-10-16T10:47:54;25.20;79.10
24049;DHT22;12250;50.956;4.746;2022-10-16T10:50:33;24.30;82.70
24049;DHT22;12250;50.956;4.746;2022-10-16T10:53:18;23.70;85.50
24049;DHT22;12250;50.956;4.746;2022-10-16T10:58:46;22.70;90.30
24049;DHT22;12250;50.956;4.746;2022-10-16T11:01:21;22.30;91.00
24049;DHT22;12250;50.956;4.746;2022-10-16T11:04:02;21.80;91.60
24049;DHT22;12250;50.956;4.746;2022-10-16T11:06:40;21.50;92.40
24049;DHT22;12250;50.956;4.746;2022-10-16T11:09:25;21.30;93.20
24049;DHT22;12250;50.956;4.746;2022-10-16T11:12:02;21.10;93.80
24049;DHT22;12250;50.956;4.746;2022-10-16T11:17:17;21.00;94.50
24049;DHT22;12250;50.956;4.746;2022-10-16T11:22:34;21.00;94.60
24049;DHT22;12250;50.956;4.746;2022-10-16T11:30:29;21.60;94.40
24049;DHT22;12250;50.956;4.746;2022-10-16T11:38:48;21.90;94.30
24049;DHT22;12250;50.956;4.746;2022-10-16T11:41:26;22.00;94.40
24049;DHT22;12250;50.956;4.746;2022-10-16T11:49:33;21.90;94.20
24049;DHT22;12250;50.956;4.746;2022-10-16T11:54:55;22.50;93.10
24049;DHT22;12250;50.956;4.746;2022-10-16T11:57:24;23.00;92.40
24049;DHT22;12250;50.956;4.746;2022-10-16T12:02:45;23.30;92.30
24049;DHT22;12250;50.956;4.746;2022-10-16T12:08:18;23.30;91.70
24049;DHT22;12250;50.956;4.746;2022-10-16T12:10:47;23.00;91.80
24049;DHT22;12250;50.956;4.746;2022-10-16T12:18:31;22.70;92.90
24049;DHT22;12250;50.956;4.746;2022-10-16T12:20:57;22.90;93.20
24049;DHT22;12250;50.956;4.746;2022-10-16T12:23:24;23.00;93.30
24049;DHT22;12250;50.956;4.746;2022-10-16T12:25:54;23.10;92.30
24049;DHT22;12250;50.956;4.746;2022-10-16T12:28:22;23.10;92.50
24049;DHT22;12250;50.956;4.746;2022-10-16T12:30:56;23.40;93.10
24049;DHT22;12250;50.956;4.746;2022-10-16T12:33:25;23.60;92.30
24049;DHT22;12250;50.956;4.746;2022-10-16T12:35:52;23.50;91.80
24049;DHT22;12250;50.956;4.746;2022-10-16T12:38:26;23.50;92.20
24049;DHT22;12250;50.956;4.746;2022-10-16T12:41:02;23.60;92.10
24049;DHT22;12250;50.956;4.746;2022-10-16T12:43:42;23.40;91.80
24049;DHT22;12250;50.956;4.746;2022-10-16T12:48:34;23.20;91.70
24049;DHT22;12250;50.956;4.746;2022-10-16T13:04:47;23.10;91.50
24049;DHT22;12250;50.956;4.746;2022-10-16T13:10:16;23.00;92.70
24049;DHT22;12250;50.956;4.746;2022-10-16T13:18:29;22.90;93.30
24049;DHT22;12250;50.956;4.746;2022-10-16T13:29:22;23.10;94.20
24049;DHT22;12250;50.956;4.746;2022-10-16T13:31:48;23.10;93.00
24049;DHT22;12250;50.956;4.746;2022-10-16T13:34:16;23.10;92.40
24049;DHT22;12250;50.956;4.746;2022-10-16T13:36:50;23.10;92.90
24049;DHT22;12250;50.956;4.746;2022-10-16T13:39:26;23.10;93.40
24049;DHT22;12250;50.956;4.746;2022-10-16T13:42:12;23.10;93.80
24049;DHT22;12250;50.956;4.746;2022-10-16T13:44:50;23.10;93.20
24049;DHT22;12250;50.956;4.746;2022-10-16T13:47:17;23.20;93.50
24049;DHT22;12250;50.956;4.746;2022-10-16T13:49:43;23.20;93.60
24049;DHT22;12250;50.956;4.746;2022-10-16T13:52:19;23.20;92.80
24049;DHT22;12250;50.956;4.746;2022-10-16T13:54:45;22.90;91.60
24049;DHT22;12250;50.956;4.746;2022-10-16T13:57:14;22.80;91.90
24049;DHT22;12250;50.956;4.746;2022-10-16T13:59:39;22.80;92.40
24049;DHT22;12250;50.956;4.746;2022-10-16T14:02:33;22.80;92.70
24049;DHT22;12250;50.956;4.746;2022-10-16T14:05:02;22.60;93.50
24049;DHT22;12250;50.956;4.746;2022-10-16T14:07:31;22.50;93.60
24049;DHT22;12250;50.956;4.746;2022-10-16T14:10:05;22.50;94.00
24049;DHT22;12250;50.956;4.746;2022-10-16T14:12:31;22.50;94.20
24049;DHT22;12250;50.956;4.746;2022-10-16T14:14:58;22.40;94.60
24049;DHT22;12250;50.956;4.746;2022-10-16T14:17:29;22.40;94.70
24049;DHT22;12250;50.956;4.746;2022-10-16T14:19:58;22.40;94.80
24049;DHT22;12250;50.956;4.746;2022-10-16T14:24:49;22.50;95.20
24049;DHT22;12250;50.956;4.746;2022-10-16T14:27:44;22.50;95.30
24049;DHT22;12250;50.956;4.746;2022-10-16T14:32:41;22.40;95.80
24049;DHT22;12250;50.956;4.746;2022-10-16T14:35:27;22.30;95.90
24049;DHT22;12250;50.956;4.746;2022-10-16T14:37:54;22.20;96.10
24049;DHT22;12250;50.956;4.746;2022-10-16T14:40:24;22.10;96.00
24049;DHT22;12250;50.956;4.746;2022-10-16T14:42:50;21.90;96.30
24049;DHT22;12250;50.956;4.746;2022-10-16T14:45:20;21.80;96.50
24049;DHT22;12250;50.956;4.746;2022-10-16T14:47:55;21.70;96.70
24049;DHT22;12250;50.956;4.746;2022-10-16T14:50:22;21.70;96.90
24049;DHT22;12250;50.956;4.746;2022-10-16T14:52:48;21.60;97.20
24049;DHT22;12250;50.956;4.746;2022-10-16T14:55:14;21.60;97.60
24049;DHT22;12250;50.956;4.746;2022-10-16T14:57:40;21.50;98.00
24049;DHT22;12250;50.956;4.746;2022-10-16T15:00:21;21.40;98.00
24049;DHT22;12250;50.956;4.746;2022-10-16T15:02:48;21.40;98.50
24049;DHT22;12250;50.956;4.746;2022-10-16T15:07:40;21.20;99.00
24049;DHT22;12250;50.956;4.746;2022-10-16T15:10:06;21.20;99.40
24049;DHT22;12250;50.956;4.746;2022-10-16T15:12:32;21.10;99.90
24049;DHT22;12250;50.956;4.746;2022-10-16T15:14:57;21.00;99.90
24049;DHT22;12250;50.956;4.746;2022-10-16T15:17:23;20.90;99.90
24049;DHT22;12250;50.956;4.746;2022-10-16T15:19:49;20.90;99.90
24049;DHT22;12250;50.956;4.746;2022-10-16T15:22:14;20.90;99.90
24049;DHT22;12250;50.956;4.746;2022-10-16T15:24:40;20.80;99.90
24049;DHT22;12250;50.956;4.746;2022-10-16T15:27:06;20.80;99.90
24049;DHT22;12250;50.956;4.746;2022-10-16T15:29:31;20.80;99.90
24049;DHT22;12250;50.956;4.746;2022-10-16T15:31:57;20.70;99.90
24049;DHT22;12250;50.956;4.746;2022-10-16T15:34:23;20.70;99.90
24049;DHT22;12250;50.956;4.746;2022-10-16T15:36:48;20.60;99.90
24049;DHT22;12250;50.956;4.746;2022-10-16T15:39:17;20.50;99.90
24049;DHT22;12250;50.956;4.746;2022-10-16T15:41:44;20.30;99.90
24049;DHT22;12250;50.956;4.746;2022-10-16T15:44:13;20.20;99.90
24049;DHT22;12250;50.956;4.746;2022-10-16T15:46:38;20.10;99.90
24049;DHT22;12250;50.956;4.746;2022-10-16T15:49:04;20.00;99.90
24049;DHT22;12250;50.956;4.746;2022-10-16T15:51:30;19.90;99.90
24049;DHT22;12250;50.956;4.746;2022-10-16T15:53:58;19.70;99.90
24049;DHT22;12250;50.956;4.746;2022-10-16T15:56:24;19.50;99.90
24049;DHT22;12250;50.956;4.746;2022-10-16T15:58:52;19.40;99.90
24049;DHT22;12250;50.956;4.746;2022-10-16T16:01:17;19.40;99.90
24049;DHT22;12250;50.956;4.746;2022-10-16T16:03:43;19.30;99.90
24049;DHT22;12250;50.956;4.746;2022-10-16T16:06:12;19.10;99.90
24049;DHT22;12250;50.956;4.746;2022-10-16T16:08:38;19.00;99.90
24049;DHT22;12250;50.956;4.746;2022-10-16T16:11:07;18.90;99.90
24049;DHT22;12250;50.956;4.746;2022-10-16T16:13:33;18.90;99.90
24049;DHT22;12250;50.956;4.746;2022-10-16T16:15:59;18.80;99.90
24049;DHT22;12250;50.956;4.746;2022-10-16T16:18:25;18.70;99.90
24049;DHT22;12250;50.956;4.746;2022-10-16T16:20:51;18.60;99.90
24049;DHT22;12250;50.956;4.746;2022-10-16T16:23:17;18.50;99.90
24049;DHT22;12250;50.956;4.746;2022-10-16T16:25:43;18.50;99.90
24049;DHT22;12250;50.956;4.746;2022-10-16T16:28:08;18.40;99.90
24049;DHT22;12250;50.956;4.746;2022-10-16T16:30:36;18.30;99.90
24049;DHT22;12250;50.956;4.746;2022-10-16T16:33:02;18.20;99.90
24049;DHT22;12250;50.956;4.746;2022-10-16T16:35:28;18.10;99.90
24049;DHT22;12250;50.956;4.746;2022-10-16T16:37:54;18.00;99.90
24049;DHT22;12250;50.956;4.746;2022-10-16T16:40:20;17.90;99.90
24049;DHT22;12250;50.956;4.746;2022-10-16T16:42:48;17.90;99.90
24049;DHT22;12250;50.956;4.746;2022-10-16T16:45:14;17.80;99.90
24049;DHT22;12250;50.956;4.746;2022-10-16T16:47:39;17.70;99.90
24049;DHT22;12250;50.956;4.746;2022-10-16T16:50:06;17.70;99.90
24049;DHT22;12250;50.956;4.746;2022-10-16T16:52:33;17.70;99.90
24049;DHT22;12250;50.956;4.746;2022-10-16T16:54:59;17.60;99.90
24049;DHT22;12250;50.956;4.746;2022-10-16T16:57:25;17.60;99.90
24049;DHT22;12250;50.956;4.746;2022-10-16T16:59:51;17.50;99.90
24049;DHT22;12250;50.956;4.746;2022-10-16T17:02:17;17.50;99.90
24049;DHT22;12250;50.956;4.746;2022-10-16T17:04:42;17.40;99.90
24049;DHT22;12250;50.956;4.746;2022-10-16T17:07:08;17.40;99.90
24049;DHT22;12250;50.956;4.746;2022-10-16T17:09:34;17.30;99.90
24049;DHT22;12250;50.956;4.746;2022-10-16T17:12:00;17.30;99.90
24049;DHT22;12250;50.956;4.746;2022-10-16T17:14:25;17.30;99.90
24049;DHT22;12250;50.956;4.746;2022-10-16T17:16:52;17.30;99.90
24049;DHT22;12250;50.956;4.746;2022-10-16T17:19:18;17.20;99.90
24049;DHT22;12250;50.956;4.746;2022-10-16T17:21:44;17.30;99.90
24049;DHT22;12250;50.956;4.746;2022-10-16T17:24:10;17.30;99.90
24049;DHT22;12250;50.956;4.746;2022-10-16T17:26:37;17.20;99.90
24049;DHT22;12250;50.956;4.746;2022-10-16T17:29:03;17.10;99.90
24049;DHT22;12250;50.956;4.746;2022-10-16T17:31:32;16.80;99.90
24049;DHT22;12250;50.956;4.746;2022-10-16T17:33:59;16.60;99.90
24049;DHT22;12250;50.956;4.746;2022-10-16T17:36:25;16.60;99.90
24049;DHT22;12250;50.956;4.746;2022-10-16T17:38:54;16.50;99.90
24049;DHT22;12250;50.956;4.746;2022-10-16T17:41:22;16.40;99.90
24049;DHT22;12250;50.956;4.746;2022-10-16T17:43:49;16.40;99.90
24049;DHT22;12250;50.956;4.746;2022-10-16T17:46:17;16.40;99.90
24049;DHT22;12250;50.956;4.746;2022-10-16T17:48:45;16.40;99.90